Abraham, UT

11:25 PM MDT on October 31, 2014 (GMT -0600)
Oak City | Change Station
CLOSE
Current Station
Personal Weather Station
Location: Oak City, UT
Elevation: 5135 ft
Nearby Weather Stations
Active Advisory: High Wind Warning Active Notice: Record Report

Elev 5135 ft 39.37 °N, 112.33 °W | Updated 6 seconds ago

Partly Cloudy
Partly Cloudy
62.0 °F
Feels Like 62.0 °F
N
8.0
Wind Variable Wind from South
Gusts 9.0 mph

Today
High -- | Low -- °F
--% Chance of Precip.
Yesterday
High -- | Low -- °F
Precip. -- in
7:57 AM 6:30 PM
Waxing Gibbous, 63% visible
Pressure 29.70 in
Visibility 10.0 miles
Clouds Clear
Dew Point 29 °F
Humidity 29%
Rainfall 0.00 in
Snow Depth Not available.
UV 0 out of 12
Pollen 1.40 out of 12
Air Quality Not available.
Flu Activity Not available.
METAR KMLF 010452Z AUTO 23011KT 10SM CLR 12/00 A2984 RMK AO2 SLP058 T01220000 TSNO

More Conditions Fewer Conditions

Pressure 29.70 in
Visibility 10.0 miles
Clouds Clear
Dew Point 29 °F
Humidity 29%
Rainfall 0.00 in
Snow Depth Not available.
UV 0 out of 12
Pollen 1.40 out of 12
Air Quality Not available.
Flu Activity Not available.
METAR KMLF 010452Z AUTO 23011KT 10SM CLR 12/00 A2984 RMK AO2 SLP058 T01220000 TSNO

More Conditions Fewer Conditions

10-Day Weather Forecast

Almanac

Astronomy

Oct. 31, 2014 Rise Set
Actual Time
Civil Twilight
Nautical Twilight
Astronomical Twilight
Moon
Length of Visible Light
Length of Day
Tomorrow will be .
, % of the Moon is Illuminated

Today's Extremes

State Highs State Lows

Community

WunderPhotos

Upload Photos

1,766,858 photos uploaded!

WunderBlogs® & News

Nearby

Air Quality

  Air Quality AQ Index Pollutant
Not available.

Snow Depth

Station Depth Elevation

Earthquake Activity

City Distance Mag. Time & Date
Minimum magnitude displayed is 2.5.

Coastal Water Temperatures

Place Temperature

Nearby Weather Stations